aviador You're here:

LFSL Decoded Metar

BRIVE in FRANCE
Report Time2018-06-17 23:30:00
UTC Time2018-06-17 23:45:10
Flight Rules vfr VFR
Wind320° at 05 kt
W.Decomp.*RWY 29: 4.3 kt HW 2.5 kt RCW
W.Rank320° ranks 1
Current wind is below 320° avg. (6.4)
Visibility9999 m
Phenomena:N/A
Clouds:N/A
Expected CloudBase > 1,200 ft AGL from Temp-Dew spread
CeilingNone
Temp14°C (ISA +1)
Dew Point11°C (82% RH)
AAT12.5°C
QNH1025 hPa
Density Alt912 ft
Elevation1,016 ft
Report Wrong Elevation
Raw Report
METAR LFSL 172330Z AUTO 32005KT CAVOK 14/11 Q1025=

Extra information for LFSL:More info

Metar Taf Metar & Taf Last 4 Metars F.Rules Stats Wind Profile Meteogram Temp Stats Airport Information Weather charts Add Link Nearby VenuesMetar ALERT Operation Metar Decoded Social comments